Clearview, Oklahoma
Current Conditions -  °F | °C
As of 7:55 AM on Saturday 25 Oct 2014 (Local Time) from KOKM Reporting Station
Haze Haze  
Wind Chill: 59°   Ceiling: Unl
Heat Index: 59°   Visibility: 5mi
Dew Point: 58°   Wind: 3mph
Humidity: 98%   Direction: 250°WSW
Pressure: 30.07"   Gusts: NA
Location:  35.3761°N, 96.1179°W
Report Text: KOKM 251255Z AUTO 25003KT 5SM BR CLR 15/15 A3007 RMK AO2 T01480145
Loading
Personal Weather Stations






























Interactive Weather Map
Tropical Storm Tracking
New forecast layout! Learn more

10-Day Weather Forecast

Advertisements
Track Severe Weather on mobile